sensor_id;sensor_type;location;lat;lon;timestamp;temperature;humidity
7445;DHT22;3764;48.126;11.594;2023-05-10T00:01:40;14.10;99.90
7445;DHT22;3764;48.126;11.594;2023-05-10T00:04:07;14.10;99.90
7445;DHT22;3764;48.126;11.594;2023-05-10T00:06:34;14.00;99.90
7445;DHT22;3764;48.126;11.594;2023-05-10T00:09:03;14.00;99.90
7445;DHT22;3764;48.126;11.594;2023-05-10T00:11:30;14.00;99.90
7445;DHT22;3764;48.126;11.594;2023-05-10T00:13:57;14.00;99.90
7445;DHT22;3764;48.126;11.594;2023-05-10T00:16:24;14.00;99.90
7445;DHT22;3764;48.126;11.594;2023-05-10T00:18:51;14.00;99.90
7445;DHT22;3764;48.126;11.594;2023-05-10T00:21:18;14.00;99.90
7445;DHT22;3764;48.126;11.594;2023-05-10T00:23:45;14.00;99.90
7445;DHT22;3764;48.126;11.594;2023-05-10T00:26:14;14.00;99.90
7445;DHT22;3764;48.126;11.594;2023-05-10T00:28:42;13.90;99.90
7445;DHT22;3764;48.126;11.594;2023-05-10T00:31:09;13.90;99.90
7445;DHT22;3764;48.126;11.594;2023-05-10T00:33:36;13.90;99.90
7445;DHT22;3764;48.126;11.594;2023-05-10T00:36:03;13.90;99.90
7445;DHT22;3764;48.126;11.594;2023-05-10T00:38:33;13.80;99.90
7445;DHT22;3764;48.126;11.594;2023-05-10T00:41:00;13.80;99.90
7445;DHT22;3764;48.126;11.594;2023-05-10T00:43:29;13.90;99.90
7445;DHT22;3764;48.126;11.594;2023-05-10T00:45:56;13.90;99.90
7445;DHT22;3764;48.126;11.594;2023-05-10T00:48:24;13.90;99.90
7445;DHT22;3764;48.126;11.594;2023-05-10T00:50:51;13.90;99.90
7445;DHT22;3764;48.126;11.594;2023-05-10T00:53:19;13.90;99.90
7445;DHT22;3764;48.126;11.594;2023-05-10T00:55:46;13.90;99.90
7445;DHT22;3764;48.126;11.594;2023-05-10T00:58:13;13.90;99.90
7445;DHT22;3764;48.126;11.594;2023-05-10T01:00:42;14.00;99.90
7445;DHT22;3764;48.126;11.594;2023-05-10T01:03:10;14.00;99.90
7445;DHT22;3764;48.126;11.594;2023-05-10T01:05:37;14.00;99.90
7445;DHT22;3764;48.126;11.594;2023-05-10T01:08:06;14.00;99.90
7445;DHT22;3764;48.126;11.594;2023-05-10T01:10:34;14.00;99.90
7445;DHT22;3764;48.126;11.594;2023-05-10T01:13:02;13.90;99.90
7445;DHT22;3764;48.126;11.594;2023-05-10T01:15:30;13.80;99.90
7445;DHT22;3764;48.126;11.594;2023-05-10T01:17:59;13.70;99.90
7445;DHT22;3764;48.126;11.594;2023-05-10T01:20:29;13.70;99.90
7445;DHT22;3764;48.126;11.594;2023-05-10T01:23:23;13.70;99.90
7445;DHT22;3764;48.126;11.594;2023-05-10T01:26:28;13.70;99.90
7445;DHT22;3764;48.126;11.594;2023-05-10T01:29:21;13.70;99.90
7445;DHT22;3764;48.126;11.594;2023-05-10T01:32:26;13.60;99.90
7445;DHT22;3764;48.126;11.594;2023-05-10T01:35:00;13.60;99.90
7445;DHT22;3764;48.126;11.594;2023-05-10T01:37:36;13.60;99.90
7445;DHT22;3764;48.126;11.594;2023-05-10T01:40:11;13.60;99.90
7445;DHT22;3764;48.126;11.594;2023-05-10T01:42:44;13.60;99.90
7445;DHT22;3764;48.126;11.594;2023-05-10T01:45:19;13.60;99.90
7445;DHT22;3764;48.126;11.594;2023-05-10T01:47:54;13.60;99.90
7445;DHT22;3764;48.126;11.594;2023-05-10T01:50:29;13.60;99.90
7445;DHT22;3764;48.126;11.594;2023-05-10T01:52:59;13.60;99.90
7445;DHT22;3764;48.126;11.594;2023-05-10T01:55:29;13.60;99.90
7445;DHT22;3764;48.126;11.594;2023-05-10T01:58:02;13.50;99.90
7445;DHT22;3764;48.126;11.594;2023-05-10T02:00:30;13.50;99.90
7445;DHT22;3764;48.126;11.594;2023-05-10T02:03:01;13.50;99.90
7445;DHT22;3764;48.126;11.594;2023-05-10T02:05:32;13.50;99.90
7445;DHT22;3764;48.126;11.594;2023-05-10T02:08:01;13.50;99.90
7445;DHT22;3764;48.126;11.594;2023-05-10T02:10:30;13.50;99.90
7445;DHT22;3764;48.126;11.594;2023-05-10T02:12:59;13.50;99.90
7445;DHT22;3764;48.126;11.594;2023-05-10T02:15:27;13.50;99.90
7445;DHT22;3764;48.126;11.594;2023-05-10T02:17:56;13.50;99.90
7445;DHT22;3764;48.126;11.594;2023-05-10T02:20:26;13.40;99.90
7445;DHT22;3764;48.126;11.594;2023-05-10T02:22:55;13.40;99.90
7445;DHT22;3764;48.126;11.594;2023-05-10T02:25:24;13.40;99.90
7445;DHT22;3764;48.126;11.594;2023-05-10T02:27:54;13.40;99.90
7445;DHT22;3764;48.126;11.594;2023-05-10T02:30:22;13.40;99.90
7445;DHT22;3764;48.126;11.594;2023-05-10T02:32:51;13.40;99.90
7445;DHT22;3764;48.126;11.594;2023-05-10T02:35:19;13.40;99.90
7445;DHT22;3764;48.126;11.594;2023-05-10T02:37:48;13.40;99.90
7445;DHT22;3764;48.126;11.594;2023-05-10T02:40:16;13.40;99.90
7445;DHT22;3764;48.126;11.594;2023-05-10T02:42:44;13.50;99.90
7445;DHT22;3764;48.126;11.594;2023-05-10T02:45:19;13.50;99.90
7445;DHT22;3764;48.126;11.594;2023-05-10T02:47:47;13.60;99.90
7445;DHT22;3764;48.126;11.594;2023-05-10T02:50:14;13.60;99.90
7445;DHT22;3764;48.126;11.594;2023-05-10T02:52:44;13.60;99.90
7445;DHT22;3764;48.126;11.594;2023-05-10T02:55:15;13.50;99.90
7445;DHT22;3764;48.126;11.594;2023-05-10T02:57:58;13.50;99.90
7445;DHT22;3764;48.126;11.594;2023-05-10T03:00:26;13.50;99.90
7445;DHT22;3764;48.126;11.594;2023-05-10T03:02:53;13.50;99.90
7445;DHT22;3764;48.126;11.594;2023-05-10T03:05:21;13.50;99.90
7445;DHT22;3764;48.126;11.594;2023-05-10T03:07:48;13.50;99.90
7445;DHT22;3764;48.126;11.594;2023-05-10T03:10:17;13.50;99.90
7445;DHT22;3764;48.126;11.594;2023-05-10T03:12:56;13.50;99.90
7445;DHT22;3764;48.126;11.594;2023-05-10T03:15:31;13.50;99.90
7445;DHT22;3764;48.126;11.594;2023-05-10T03:18:06;13.50;99.90
7445;DHT22;3764;48.126;11.594;2023-05-10T03:20:36;13.50;99.90
7445;DHT22;3764;48.126;11.594;2023-05-10T03:23:11;13.50;99.90
7445;DHT22;3764;48.126;11.594;2023-05-10T03:25:41;13.50;99.90
7445;DHT22;3764;48.126;11.594;2023-05-10T03:28:10;13.50;99.90
7445;DHT22;3764;48.126;11.594;2023-05-10T03:30:38;13.50;99.90
7445;DHT22;3764;48.126;11.594;2023-05-10T03:33:06;13.50;99.90
7445;DHT22;3764;48.126;11.594;2023-05-10T03:35:33;13.50;99.90
7445;DHT22;3764;48.126;11.594;2023-05-10T03:38:01;13.40;99.90
7445;DHT22;3764;48.126;11.594;2023-05-10T03:40:28;13.40;99.90
7445;DHT22;3764;48.126;11.594;2023-05-10T03:42:58;13.40;99.90
7445;DHT22;3764;48.126;11.594;2023-05-10T03:45:26;13.50;99.90
7445;DHT22;3764;48.126;11.594;2023-05-10T03:47:53;13.50;99.90
7445;DHT22;3764;48.126;11.594;2023-05-10T03:50:21;13.40;99.90
7445;DHT22;3764;48.126;11.594;2023-05-10T03:52:48;13.40;99.90
7445;DHT22;3764;48.126;11.594;2023-05-10T03:55:15;13.40;99.90
7445;DHT22;3764;48.126;11.594;2023-05-10T03:57:43;13.40;99.90
7445;DHT22;3764;48.126;11.594;2023-05-10T04:00:12;13.40;99.90
7445;DHT22;3764;48.126;11.594;2023-05-10T04:02:39;13.40;99.90
7445;DHT22;3764;48.126;11.594;2023-05-10T04:05:07;13.40;99.90
7445;DHT22;3764;48.126;11.594;2023-05-10T04:07:34;13.40;99.90
7445;DHT22;3764;48.126;11.594;2023-05-10T04:10:02;13.40;99.90
7445;DHT22;3764;48.126;11.594;2023-05-10T04:12:30;13.40;99.90
7445;DHT22;3764;48.126;11.594;2023-05-10T04:14:57;13.30;99.90
7445;DHT22;3764;48.126;11.594;2023-05-10T04:17:25;13.30;99.90
7445;DHT22;3764;48.126;11.594;2023-05-10T04:19:52;13.30;99.90
7445;DHT22;3764;48.126;11.594;2023-05-10T04:22:20;13.30;99.90
7445;DHT22;3764;48.126;11.594;2023-05-10T04:24:47;13.30;99.90
7445;DHT22;3764;48.126;11.594;2023-05-10T04:27:14;13.30;99.90
7445;DHT22;3764;48.126;11.594;2023-05-10T04:29:41;13.30;99.90
7445;DHT22;3764;48.126;11.594;2023-05-10T04:32:08;13.40;99.90
7445;DHT22;3764;48.126;11.594;2023-05-10T04:34:37;13.40;99.90
7445;DHT22;3764;48.126;11.594;2023-05-10T04:37:04;13.40;99.90
7445;DHT22;3764;48.126;11.594;2023-05-10T04:39:33;13.40;99.90
7445;DHT22;3764;48.126;11.594;2023-05-10T04:42:00;13.40;99.90
7445;DHT22;3764;48.126;11.594;2023-05-10T04:44:28;13.40;99.90
7445;DHT22;3764;48.126;11.594;2023-05-10T04:46:55;13.40;99.90
7445;DHT22;3764;48.126;11.594;2023-05-10T04:49:22;13.30;99.90
7445;DHT22;3764;48.126;11.594;2023-05-10T04:51:51;13.30;99.90
7445;DHT22;3764;48.126;11.594;2023-05-10T04:54:18;13.30;99.90
7445;DHT22;3764;48.126;11.594;2023-05-10T04:56:45;13.30;99.90
7445;DHT22;3764;48.126;11.594;2023-05-10T04:59:12;13.30;99.90
7445;DHT22;3764;48.126;11.594;2023-05-10T05:01:39;13.30;99.90
7445;DHT22;3764;48.126;11.594;2023-05-10T05:04:06;13.30;99.90
7445;DHT22;3764;48.126;11.594;2023-05-10T05:06:34;13.30;99.90
7445;DHT22;3764;48.126;11.594;2023-05-10T05:09:02;13.30;99.90
7445;DHT22;3764;48.126;11.594;2023-05-10T05:11:29;13.30;99.90
7445;DHT22;3764;48.126;11.594;2023-05-10T05:13:56;13.30;99.90
7445;DHT22;3764;48.126;11.594;2023-05-10T05:16:24;13.20;99.90
7445;DHT22;3764;48.126;11.594;2023-05-10T05:18:52;13.20;99.90
7445;DHT22;3764;48.126;11.594;2023-05-10T05:21:20;13.20;99.90
7445;DHT22;3764;48.126;11.594;2023-05-10T05:23:47;13.20;99.90
7445;DHT22;3764;48.126;11.594;2023-05-10T05:26:15;13.20;99.90
7445;DHT22;3764;48.126;11.594;2023-05-10T05:28:42;13.30;99.90
7445;DHT22;3764;48.126;11.594;2023-05-10T05:31:09;13.30;99.90
7445;DHT22;3764;48.126;11.594;2023-05-10T05:33:37;13.30;99.90
7445;DHT22;3764;48.126;11.594;2023-05-10T05:36:05;13.30;99.90
7445;DHT22;3764;48.126;11.594;2023-05-10T05:38:32;13.40;99.90
7445;DHT22;3764;48.126;11.594;2023-05-10T05:41:00;13.40;99.90
7445;DHT22;3764;48.126;11.594;2023-05-10T05:43:28;13.40;99.90
7445;DHT22;3764;48.126;11.594;2023-05-10T05:45:55;13.30;99.90
7445;DHT22;3764;48.126;11.594;2023-05-10T05:48:23;13.40;99.90
7445;DHT22;3764;48.126;11.594;2023-05-10T05:50:53;13.30;99.90
7445;DHT22;3764;48.126;11.594;2023-05-10T05:53:20;13.30;99.90
7445;DHT22;3764;48.126;11.594;2023-05-10T05:55:51;13.30;99.90
7445;DHT22;3764;48.126;11.594;2023-05-10T05:58:19;13.20;99.90
7445;DHT22;3764;48.126;11.594;2023-05-10T06:00:48;13.20;99.90
7445;DHT22;3764;48.126;11.594;2023-05-10T06:03:15;13.20;99.90
7445;DHT22;3764;48.126;11.594;2023-05-10T06:05:42;13.20;99.90
7445;DHT22;3764;48.126;11.594;2023-05-10T06:08:09;13.20;99.90
7445;DHT22;3764;48.126;11.594;2023-05-10T06:10:36;13.20;99.90
7445;DHT22;3764;48.126;11.594;2023-05-10T06:13:03;13.20;99.90
7445;DHT22;3764;48.126;11.594;2023-05-10T06:15:30;13.20;99.90
7445;DHT22;3764;48.126;11.594;2023-05-10T06:17:59;13.30;99.90
7445;DHT22;3764;48.126;11.594;2023-05-10T06:20:26;13.30;99.90
7445;DHT22;3764;48.126;11.594;2023-05-10T06:22:53;13.30;99.90
7445;DHT22;3764;48.126;11.594;2023-05-10T06:25:20;13.30;99.90
7445;DHT22;3764;48.126;11.594;2023-05-10T06:27:47;13.30;99.90
7445;DHT22;3764;48.126;11.594;2023-05-10T06:30:15;13.40;99.90
7445;DHT22;3764;48.126;11.594;2023-05-10T06:32:42;13.40;99.90
7445;DHT22;3764;48.126;11.594;2023-05-10T06:35:12;13.30;99.90
7445;DHT22;3764;48.126;11.594;2023-05-10T06:37:39;13.40;99.90
7445;DHT22;3764;48.126;11.594;2023-05-10T06:40:07;13.30;99.90
7445;DHT22;3764;48.126;11.594;2023-05-10T06:42:35;13.40;99.90
7445;DHT22;3764;48.126;11.594;2023-05-10T06:45:02;13.30;99.90
7445;DHT22;3764;48.126;11.594;2023-05-10T06:47:29;13.30;99.90
7445;DHT22;3764;48.126;11.594;2023-05-10T06:49:57;13.40;99.90
7445;DHT22;3764;48.126;11.594;2023-05-10T06:52:25;13.30;99.90
7445;DHT22;3764;48.126;11.594;2023-05-10T06:54:52;13.40;99.90
7445;DHT22;3764;48.126;11.594;2023-05-10T06:57:19;13.40;99.90
7445;DHT22;3764;48.126;11.594;2023-05-10T06:59:47;13.40;99.90
7445;DHT22;3764;48.126;11.594;2023-05-10T07:02:14;13.40;99.90
7445;DHT22;3764;48.126;11.594;2023-05-10T07:04:42;13.40;99.90
7445;DHT22;3764;48.126;11.594;2023-05-10T07:07:09;13.40;99.90
7445;DHT22;3764;48.126;11.594;2023-05-10T07:09:37;13.50;99.90
7445;DHT22;3764;48.126;11.594;2023-05-10T07:12:04;13.40;99.90
7445;DHT22;3764;48.126;11.594;2023-05-10T07:14:31;13.40;99.90
7445;DHT22;3764;48.126;11.594;2023-05-10T07:16:58;13.40;99.90
7445;DHT22;3764;48.126;11.594;2023-05-10T07:19:25;13.40;99.90
7445;DHT22;3764;48.126;11.594;2023-05-10T07:21:52;13.50;99.90
7445;DHT22;3764;48.126;11.594;2023-05-10T07:24:19;13.50;99.90
7445;DHT22;3764;48.126;11.594;2023-05-10T07:26:48;13.50;99.90
7445;DHT22;3764;48.126;11.594;2023-05-10T07:29:15;13.50;99.90
7445;DHT22;3764;48.126;11.594;2023-05-10T07:31:42;13.50;99.90
7445;DHT22;3764;48.126;11.594;2023-05-10T07:34:09;13.60;99.90
7445;DHT22;3764;48.126;11.594;2023-05-10T07:36:36;13.60;99.90
7445;DHT22;3764;48.126;11.594;2023-05-10T07:39:03;13.70;99.90
7445;DHT22;3764;48.126;11.594;2023-05-10T07:41:30;13.70;99.90
7445;DHT22;3764;48.126;11.594;2023-05-10T07:43:59;13.70;99.90
7445;DHT22;3764;48.126;11.594;2023-05-10T07:46:26;13.80;99.90
7445;DHT22;3764;48.126;11.594;2023-05-10T07:48:54;13.80;99.90
7445;DHT22;3764;48.126;11.594;2023-05-10T07:51:21;13.80;99.90
7445;DHT22;3764;48.126;11.594;2023-05-10T07:53:49;13.80;99.90
7445;DHT22;3764;48.126;11.594;2023-05-10T07:56:24;13.80;99.90
7445;DHT22;3764;48.126;11.594;2023-05-10T07:58:53;13.90;99.90
7445;DHT22;3764;48.126;11.594;2023-05-10T08:01:22;13.90;99.90
7445;DHT22;3764;48.126;11.594;2023-05-10T08:03:49;14.00;99.90
7445;DHT22;3764;48.126;11.594;2023-05-10T08:06:17;14.00;99.90
7445;DHT22;3764;48.126;11.594;2023-05-10T08:08:46;14.00;99.90
7445;DHT22;3764;48.126;11.594;2023-05-10T08:11:16;14.10;99.90
7445;DHT22;3764;48.126;11.594;2023-05-10T08:13:43;14.10;99.90
7445;DHT22;3764;48.126;11.594;2023-05-10T08:16:10;14.10;99.90
7445;DHT22;3764;48.126;11.594;2023-05-10T08:18:39;14.10;99.90
7445;DHT22;3764;48.126;11.594;2023-05-10T08:21:07;14.10;99.90
7445;DHT22;3764;48.126;11.594;2023-05-10T08:23:34;14.10;99.90
7445;DHT22;3764;48.126;11.594;2023-05-10T08:26:01;14.10;99.90
7445;DHT22;3764;48.126;11.594;2023-05-10T08:28:28;14.20;99.90
7445;DHT22;3764;48.126;11.594;2023-05-10T08:30:55;14.20;99.90
7445;DHT22;3764;48.126;11.594;2023-05-10T08:33:22;14.20;99.90
7445;DHT22;3764;48.126;11.594;2023-05-10T08:35:52;14.30;99.90
7445;DHT22;3764;48.126;11.594;2023-05-10T08:38:19;14.40;99.90
7445;DHT22;3764;48.126;11.594;2023-05-10T08:40:46;14.40;99.90
7445;DHT22;3764;48.126;11.594;2023-05-10T08:43:16;14.40;99.90
7445;DHT22;3764;48.126;11.594;2023-05-10T08:45:44;14.40;99.90
7445;DHT22;3764;48.126;11.594;2023-05-10T08:48:13;14.50;99.90
7445;DHT22;3764;48.126;11.594;2023-05-10T08:50:42;14.40;99.90
7445;DHT22;3764;48.126;11.594;2023-05-10T08:53:11;14.40;99.90
7445;DHT22;3764;48.126;11.594;2023-05-10T08:55:40;14.30;99.90
7445;DHT22;3764;48.126;11.594;2023-05-10T08:58:09;14.30;99.90
7445;DHT22;3764;48.126;11.594;2023-05-10T09:00:36;14.30;99.90
7445;DHT22;3764;48.126;11.594;2023-05-10T09:03:04;14.30;99.90
7445;DHT22;3764;48.126;11.594;2023-05-10T09:05:32;14.40;99.90
7445;DHT22;3764;48.126;11.594;2023-05-10T09:07:59;14.30;99.90
7445;DHT22;3764;48.126;11.594;2023-05-10T09:10:28;14.30;99.90
7445;DHT22;3764;48.126;11.594;2023-05-10T09:12:56;14.30;99.90
7445;DHT22;3764;48.126;11.594;2023-05-10T09:15:24;14.30;99.90
7445;DHT22;3764;48.126;11.594;2023-05-10T09:17:51;14.30;99.90
7445;DHT22;3764;48.126;11.594;2023-05-10T09:20:18;14.30;99.90
7445;DHT22;3764;48.126;11.594;2023-05-10T09:22:46;14.30;99.90
7445;DHT22;3764;48.126;11.594;2023-05-10T09:25:14;14.40;99.90
7445;DHT22;3764;48.126;11.594;2023-05-10T09:27:45;14.50;99.90
7445;DHT22;3764;48.126;11.594;2023-05-10T09:30:16;14.60;99.90
7445;DHT22;3764;48.126;11.594;2023-05-10T09:32:44;14.60;99.90
7445;DHT22;3764;48.126;11.594;2023-05-10T09:35:13;14.70;99.90
7445;DHT22;3764;48.126;11.594;2023-05-10T09:37:41;14.70;99.90
7445;DHT22;3764;48.126;11.594;2023-05-10T09:40:12;14.80;99.90
7445;DHT22;3764;48.126;11.594;2023-05-10T09:42:41;14.70;99.90
7445;DHT22;3764;48.126;11.594;2023-05-10T09:45:10;14.70;99.90
7445;DHT22;3764;48.126;11.594;2023-05-10T09:47:37;14.70;99.90
7445;DHT22;3764;48.126;11.594;2023-05-10T09:50:05;14.80;99.90
7445;DHT22;3764;48.126;11.594;2023-05-10T09:52:46;14.70;99.90
7445;DHT22;3764;48.126;11.594;2023-05-10T09:55:14;14.80;99.90
7445;DHT22;3764;48.126;11.594;2023-05-10T09:57:41;14.80;99.90
7445;DHT22;3764;48.126;11.594;2023-05-10T10:00:11;14.80;99.90
7445;DHT22;3764;48.126;11.594;2023-05-10T10:02:43;14.80;99.90
7445;DHT22;3764;48.126;11.594;2023-05-10T10:05:11;14.90;99.90
7445;DHT22;3764;48.126;11.594;2023-05-10T10:07:39;14.90;99.90
7445;DHT22;3764;48.126;11.594;2023-05-10T10:10:07;15.00;99.90
7445;DHT22;3764;48.126;11.594;2023-05-10T10:12:37;15.10;99.90
7445;DHT22;3764;48.126;11.594;2023-05-10T10:15:05;15.10;99.90
7445;DHT22;3764;48.126;11.594;2023-05-10T10:17:36;15.10;99.90
7445;DHT22;3764;48.126;11.594;2023-05-10T10:20:04;15.00;99.90
7445;DHT22;3764;48.126;11.594;2023-05-10T10:22:31;15.10;99.90
7445;DHT22;3764;48.126;11.594;2023-05-10T10:24:58;15.10;99.90
7445;DHT22;3764;48.126;11.594;2023-05-10T10:27:36;15.00;99.90
7445;DHT22;3764;48.126;11.594;2023-05-10T10:30:13;15.10;99.90
7445;DHT22;3764;48.126;11.594;2023-05-10T10:32:59;15.10;99.90
7445;DHT22;3764;48.126;11.594;2023-05-10T10:35:30;15.10;99.90
7445;DHT22;3764;48.126;11.594;2023-05-10T10:37:57;15.10;99.90
7445;DHT22;3764;48.126;11.594;2023-05-10T10:40:27;15.20;99.90
7445;DHT22;3764;48.126;11.594;2023-05-10T10:42:54;15.20;99.90
7445;DHT22;3764;48.126;11.594;2023-05-10T10:45:23;15.20;99.90
7445;DHT22;3764;48.126;11.594;2023-05-10T10:48:21;15.20;99.90
7445;DHT22;3764;48.126;11.594;2023-05-10T10:50:56;15.30;99.90
7445;DHT22;3764;48.126;11.594;2023-05-10T10:53:26;15.30;99.90
7445;DHT22;3764;48.126;11.594;2023-05-10T10:56:04;15.40;99.90
7445;DHT22;3764;48.126;11.594;2023-05-10T10:58:33;15.40;99.90
7445;DHT22;3764;48.126;11.594;2023-05-10T11:01:15;15.40;99.90
7445;DHT22;3764;48.126;11.594;2023-05-10T11:04:18;15.40;99.90
7445;DHT22;3764;48.126;11.594;2023-05-10T11:06:46;15.30;99.90
7445;DHT22;3764;48.126;11.594;2023-05-10T11:09:13;15.30;99.90
7445;DHT22;3764;48.126;11.594;2023-05-10T11:11:52;15.30;99.90
7445;DHT22;3764;48.126;11.594;2023-05-10T11:14:21;15.30;99.90
7445;DHT22;3764;48.126;11.594;2023-05-10T11:16:49;15.30;99.90
7445;DHT22;3764;48.126;11.594;2023-05-10T11:19:18;15.30;99.90
7445;DHT22;3764;48.126;11.594;2023-05-10T11:21:48;15.20;99.90
7445;DHT22;3764;48.126;11.594;2023-05-10T11:24:16;15.10;99.90
7445;DHT22;3764;48.126;11.594;2023-05-10T11:26:44;15.00;99.90
7445;DHT22;3764;48.126;11.594;2023-05-10T11:29:13;14.80;99.90
7445;DHT22;3764;48.126;11.594;2023-05-10T11:31:43;14.70;99.90
7445;DHT22;3764;48.126;11.594;2023-05-10T11:34:23;14.60;99.90
7445;DHT22;3764;48.126;11.594;2023-05-10T11:36:52;14.60;99.90
7445;DHT22;3764;48.126;11.594;2023-05-10T11:39:20;14.50;99.90
7445;DHT22;3764;48.126;11.594;2023-05-10T11:41:48;14.40;99.90
7445;DHT22;3764;48.126;11.594;2023-05-10T11:44:15;14.30;99.90
7445;DHT22;3764;48.126;11.594;2023-05-10T11:46:43;14.30;99.90
7445;DHT22;3764;48.126;11.594;2023-05-10T11:49:10;14.30;99.90
7445;DHT22;3764;48.126;11.594;2023-05-10T11:51:40;14.20;99.90
7445;DHT22;3764;48.126;11.594;2023-05-10T11:54:09;14.10;99.90
7445;DHT22;3764;48.126;11.594;2023-05-10T11:56:37;14.10;99.90
7445;DHT22;3764;48.126;11.594;2023-05-10T11:59:04;13.90;99.90
7445;DHT22;3764;48.126;11.594;2023-05-10T12:01:31;13.80;99.90
7445;DHT22;3764;48.126;11.594;2023-05-10T12:03:59;13.70;99.90
7445;DHT22;3764;48.126;11.594;2023-05-10T12:06:28;13.70;99.90
7445;DHT22;3764;48.126;11.594;2023-05-10T12:08:57;13.80;99.90
7445;DHT22;3764;48.126;11.594;2023-05-10T12:11:25;13.80;99.90
7445;DHT22;3764;48.126;11.594;2023-05-10T12:13:52;13.80;99.90
7445;DHT22;3764;48.126;11.594;2023-05-10T12:16:22;13.80;99.90
7445;DHT22;3764;48.126;11.594;2023-05-10T12:18:50;13.70;99.90
7445;DHT22;3764;48.126;11.594;2023-05-10T12:21:18;13.70;99.90
7445;DHT22;3764;48.126;11.594;2023-05-10T12:23:46;13.70;99.90
7445;DHT22;3764;48.126;11.594;2023-05-10T12:26:15;13.70;99.90
7445;DHT22;3764;48.126;11.594;2023-05-10T12:28:42;13.70;99.90
7445;DHT22;3764;48.126;11.594;2023-05-10T12:31:09;13.60;99.90
7445;DHT22;3764;48.126;11.594;2023-05-10T12:33:37;13.60;99.90
7445;DHT22;3764;48.126;11.594;2023-05-10T12:36:07;13.60;99.90
7445;DHT22;3764;48.126;11.594;2023-05-10T12:38:36;13.50;99.90
7445;DHT22;3764;48.126;11.594;2023-05-10T12:41:04;13.50;99.90
7445;DHT22;3764;48.126;11.594;2023-05-10T12:43:33;13.50;99.90
7445;DHT22;3764;48.126;11.594;2023-05-10T12:46:05;13.50;99.90
7445;DHT22;3764;48.126;11.594;2023-05-10T12:48:32;13.50;99.90
7445;DHT22;3764;48.126;11.594;2023-05-10T12:51:00;13.30;99.90
7445;DHT22;3764;48.126;11.594;2023-05-10T12:53:27;13.20;99.90
7445;DHT22;3764;48.126;11.594;2023-05-10T12:55:54;13.20;99.90
7445;DHT22;3764;48.126;11.594;2023-05-10T12:58:22;13.30;99.90
7445;DHT22;3764;48.126;11.594;2023-05-10T13:00:50;13.30;99.90
7445;DHT22;3764;48.126;11.594;2023-05-10T13:03:18;13.30;99.90
7445;DHT22;3764;48.126;11.594;2023-05-10T13:05:45;13.30;99.90
7445;DHT22;3764;48.126;11.594;2023-05-10T13:08:12;13.30;99.90
7445;DHT22;3764;48.126;11.594;2023-05-10T13:10:39;13.20;99.90
7445;DHT22;3764;48.126;11.594;2023-05-10T13:13:07;13.30;99.90
7445;DHT22;3764;48.126;11.594;2023-05-10T13:15:34;13.30;99.90
7445;DHT22;3764;48.126;11.594;2023-05-10T13:18:02;13.30;99.90
7445;DHT22;3764;48.126;11.594;2023-05-10T13:20:30;13.30;99.90
7445;DHT22;3764;48.126;11.594;2023-05-10T13:22:57;13.30;99.90
7445;DHT22;3764;48.126;11.594;2023-05-10T13:25:24;13.30;99.90
7445;DHT22;3764;48.126;11.594;2023-05-10T13:27:51;13.30;99.90
7445;DHT22;3764;48.126;11.594;2023-05-10T13:30:18;13.20;99.90
7445;DHT22;3764;48.126;11.594;2023-05-10T13:32:46;13.20;99.90
7445;DHT22;3764;48.126;11.594;2023-05-10T13:35:14;13.10;99.90
7445;DHT22;3764;48.126;11.594;2023-05-10T13:37:41;13.00;99.90
7445;DHT22;3764;48.126;11.594;2023-05-10T13:40:09;13.00;99.90
7445;DHT22;3764;48.126;11.594;2023-05-10T13:42:36;12.90;99.90
7445;DHT22;3764;48.126;11.594;2023-05-10T13:45:03;12.90;99.90
7445;DHT22;3764;48.126;11.594;2023-05-10T13:47:31;12.90;99.90
7445;DHT22;3764;48.126;11.594;2023-05-10T13:49:58;12.90;99.90
7445;DHT22;3764;48.126;11.594;2023-05-10T13:52:26;12.90;99.90
7445;DHT22;3764;48.126;11.594;2023-05-10T13:54:53;13.00;99.90
7445;DHT22;3764;48.126;11.594;2023-05-10T13:57:21;12.90;99.90
7445;DHT22;3764;48.126;11.594;2023-05-10T13:59:49;12.90;99.90
7445;DHT22;3764;48.126;11.594;2023-05-10T14:02:17;12.80;99.90
7445;DHT22;3764;48.126;11.594;2023-05-10T14:04:44;12.80;99.90
7445;DHT22;3764;48.126;11.594;2023-05-10T14:07:11;12.90;99.90
7445;DHT22;3764;48.126;11.594;2023-05-10T14:09:39;12.90;99.90
7445;DHT22;3764;48.126;11.594;2023-05-10T14:12:06;12.80;99.90
7445;DHT22;3764;48.126;11.594;2023-05-10T14:14:34;12.80;99.90
7445;DHT22;3764;48.126;11.594;2023-05-10T14:17:01;12.80;99.90
7445;DHT22;3764;48.126;11.594;2023-05-10T14:19:28;12.70;99.90
7445;DHT22;3764;48.126;11.594;2023-05-10T14:21:58;12.70;99.90
7445;DHT22;3764;48.126;11.594;2023-05-10T14:24:25;12.70;99.90
7445;DHT22;3764;48.126;11.594;2023-05-10T14:26:53;12.70;99.90
7445;DHT22;3764;48.126;11.594;2023-05-10T14:29:20;12.70;99.90
7445;DHT22;3764;48.126;11.594;2023-05-10T14:31:48;12.70;99.90
7445;DHT22;3764;48.126;11.594;2023-05-10T14:34:15;12.80;99.90
7445;DHT22;3764;48.126;11.594;2023-05-10T14:36:42;12.70;99.90
7445;DHT22;3764;48.126;11.594;2023-05-10T14:39:09;12.80;99.90
7445;DHT22;3764;48.126;11.594;2023-05-10T14:41:38;12.80;99.90
7445;DHT22;3764;48.126;11.594;2023-05-10T14:44:07;12.80;99.90
7445;DHT22;3764;48.126;11.594;2023-05-10T14:46:35;12.80;99.90
7445;DHT22;3764;48.126;11.594;2023-05-10T14:49:02;12.80;99.90
7445;DHT22;3764;48.126;11.594;2023-05-10T14:51:29;12.80;99.90
7445;DHT22;3764;48.126;11.594;2023-05-10T14:53:57;12.90;99.90
7445;DHT22;3764;48.126;11.594;2023-05-10T14:56:24;12.90;99.90
7445;DHT22;3764;48.126;11.594;2023-05-10T14:58:52;13.00;99.90
7445;DHT22;3764;48.126;11.594;2023-05-10T15:01:20;12.90;99.90
7445;DHT22;3764;48.126;11.594;2023-05-10T15:03:47;12.90;99.90
7445;DHT22;3764;48.126;11.594;2023-05-10T15:06:15;12.90;99.90
7445;DHT22;3764;48.126;11.594;2023-05-10T15:08:42;12.90;99.90
7445;DHT22;3764;48.126;11.594;2023-05-10T15:11:10;12.80;99.90
7445;DHT22;3764;48.126;11.594;2023-05-10T15:13:37;12.80;99.90
7445;DHT22;3764;48.126;11.594;2023-05-10T15:16:04;12.80;99.90
7445;DHT22;3764;48.126;11.594;2023-05-10T15:18:32;12.80;99.90
7445;DHT22;3764;48.126;11.594;2023-05-10T15:20:59;12.90;99.90
7445;DHT22;3764;48.126;11.594;2023-05-10T15:23:26;12.90;99.90
7445;DHT22;3764;48.126;11.594;2023-05-10T15:25:55;12.90;99.90
7445;DHT22;3764;48.126;11.594;2023-05-10T15:28:22;13.00;99.90
7445;DHT22;3764;48.126;11.594;2023-05-10T15:30:49;13.00;99.90
7445;DHT22;3764;48.126;11.594;2023-05-10T15:33:17;13.00;99.90
7445;DHT22;3764;48.126;11.594;2023-05-10T15:35:45;12.90;99.90
7445;DHT22;3764;48.126;11.594;2023-05-10T15:38:12;12.90;99.90
7445;DHT22;3764;48.126;11.594;2023-05-10T15:40:39;12.80;99.90
7445;DHT22;3764;48.126;11.594;2023-05-10T15:43:06;12.80;99.90
7445;DHT22;3764;48.126;11.594;2023-05-10T15:45:33;12.80;99.90
7445;DHT22;3764;48.126;11.594;2023-05-10T15:48:00;12.80;99.90
7445;DHT22;3764;48.126;11.594;2023-05-10T15:50:27;12.80;99.90
7445;DHT22;3764;48.126;11.594;2023-05-10T15:52:56;12.80;99.90
7445;DHT22;3764;48.126;11.594;2023-05-10T15:55:23;12.80;99.90